Time;durP1;ratioP1;P1;durP2;ratioP2;P2;SDS_P1;SDS_P2;PMS_P1;PMS_P2;Temp;Humidity;BMP_temperature;BMP_pressure;BME280_temperature;BME280_humidity;BME280_pressure;Samples;Min_cycle;Max_cycle;Signal;HPM_P1;HPM_P2
2022/05/12 00:01:03;;;;;;;5.43;1.65;;;;;;;24.53;35.23;100903.84;5052096;28;20056;-74
2022/05/12 00:03:29;;;;;;;4.00;1.60;;;;;;;24.50;35.06;100909.75;5051429;28;20468;-74
2022/05/12 00:05:56;;;;;;;3.47;1.83;;;;;;;24.46;35.07;100905.66;5052197;28;20487;-74
2022/05/12 00:08:23;;;;;;;2.00;1.23;;;;;;;24.42;35.20;100915.41;5049992;28;20040;-74
2022/05/12 00:10:50;;;;;;;2.55;1.55;;;;;;;24.38;35.85;100900.19;5051017;28;20049;-74
2022/05/12 00:13:16;;;;;;;2.65;1.45;;;;;;;24.35;35.41;100917.22;5054898;28;20041;-74
2022/05/12 00:15:43;;;;;;;4.32;1.50;;;;;;;24.31;35.64;100918.63;5052179;28;20056;-76
2022/05/12 00:18:10;;;;;;;2.40;1.50;;;;;;;24.28;35.95;100919.91;5067903;28;20398;-75
2022/05/12 00:20:39;;;;;;;1.95;1.27;;;;;;;24.29;35.88;100926.31;5088612;28;20260;-75
2022/05/12 00:23:15;;;;;;;2.97;1.35;;;;;;;24.29;37.25;100934.63;5084914;28;20498;-75
2022/05/12 00:25:44;;;;;;;3.10;1.50;;;;;;;24.22;36.67;100934.50;5057397;28;20102;-75
2022/05/12 00:28:12;;;;;;;3.42;1.55;;;;;;;24.20;36.28;100940.28;5054058;28;20056;-75
2022/05/12 00:30:39;;;;;;;3.22;1.63;;;;;;;24.18;36.58;100934.00;5055803;28;20061;-75
2022/05/12 00:33:07;;;;;;;3.17;1.60;;;;;;;24.17;36.72;100931.41;5056621;28;20048;-75
2022/05/12 00:35:39;;;;;;;2.30;1.40;;;;;;;24.14;36.83;100934.56;5051806;28;20417;-75
2022/05/12 00:38:06;;;;;;;3.58;1.67;;;;;;;24.13;36.89;100935.63;5048931;28;20052;-75
2022/05/12 00:40:32;;;;;;;2.63;1.60;;;;;;;24.13;37.08;100938.41;5055251;28;20048;-75
2022/05/12 00:43:05;;;;;;;3.17;1.67;;;;;;;24.14;38.22;100940.09;5045057;28;20493;-75
2022/05/12 00:45:37;;;;;;;4.05;1.85;;;;;;;24.10;36.93;100944.31;5049335;28;20171;-75
2022/05/12 00:48:05;;;;;;;4.68;2.08;;;;;;;24.08;36.88;100950.06;5058391;28;20071;-75
2022/05/12 00:50:39;;;;;;;4.85;1.98;;;;;;;24.10;38.11;100952.66;5053796;28;20048;-75
2022/05/12 00:53:08;;;;;;;3.92;1.80;;;;;;;24.05;37.10;100955.13;5047328;28;20559;-75
2022/05/12 00:55:38;;;;;;;3.55;1.92;;;;;;;24.05;37.22;100964.28;5083593;28;20052;-75
2022/05/12 00:58:09;;;;;;;3.03;1.70;;;;;;;24.04;38.45;100967.28;5050488;28;20101;-75
2022/05/12 01:00:37;;;;;;;3.67;1.90;;;;;;;24.00;37.00;100977.00;5050760;28;20048;-75
2022/05/12 01:03:09;;;;;;;3.33;1.80;;;;;;;24.00;37.22;100974.22;5050325;28;20537;-75
2022/05/12 01:05:36;;;;;;;3.17;1.77;;;;;;;23.94;36.52;100983.31;5044758;28;20080;-75
2022/05/12 01:08:03;;;;;;;2.88;1.88;;;;;;;23.94;36.28;100983.31;5045908;28;20498;-75
2022/05/12 01:10:30;;;;;;;4.25;1.85;;;;;;;23.92;36.67;100994.56;5052976;28;20048;-75
2022/05/12 01:12:58;;;;;;;3.72;1.80;;;;;;;23.89;36.56;100994.94;5057793;28;20425;-76
2022/05/12 01:15:25;;;;;;;3.00;1.70;;;;;;;23.87;36.12;101000.69;5051914;28;20049;-76
2022/05/12 01:18:15;;;;;;;3.45;1.77;;;;;;;23.85;36.75;100999.16;5061492;28;20151;-75
2022/05/12 01:20:42;;;;;;;5.22;1.77;;;;;;;23.80;36.21;101002.47;5062194;28;20054;-76
2022/05/12 01:23:31;;;;;;;3.42;1.92;;;;;;;23.80;36.31;101005.22;5052836;28;20045;-75
2022/05/12 01:26:07;;;;;;;3.70;1.80;;;;;;;23.80;36.57;101019.09;5052830;28;20516;-75
2022/05/12 01:28:34;;;;;;;3.75;1.88;;;;;;;23.76;35.89;101016.88;5054396;28;20040;-76
2022/05/12 01:31:01;;;;;;;3.13;1.80;;;;;;;23.72;35.99;101013.59;5050428;28;20478;-75
2022/05/12 01:33:28;;;;;;;4.35;1.95;;;;;;;23.71;35.99;101024.91;5054322;28;20075;-75
2022/05/12 01:35:55;;;;;;;3.70;1.75;;;;;;;23.67;35.50;101013.31;5054104;28;20436;-75
2022/05/12 01:38:23;;;;;;;3.42;1.67;;;;;;;23.65;35.52;101023.72;5056207;28;21411;-76
2022/05/12 01:40:50;;;;;;;3.92;1.92;;;;;;;23.62;35.49;101018.56;5051791;28;20040;-76
2022/05/12 01:43:17;;;;;;;4.22;1.90;;;;;;;23.59;35.26;101020.81;5056515;28;20135;-76
2022/05/12 01:45:44;;;;;;;4.88;1.90;;;;;;;23.55;35.70;101036.97;5056230;28;20520;-75
2022/05/12 01:48:12;;;;;;;3.30;1.95;;;;;;;23.55;35.35;101047.19;5052467;28;20463;-75
2022/05/12 01:50:41;;;;;;;3.80;1.83;;;;;;;23.49;35.73;101052.38;5065919;28;20089;-75
2022/05/12 01:53:10;;;;;;;3.50;1.80;;;;;;;23.46;35.41;101052.75;5054643;28;20044;-76
2022/05/12 01:55:38;;;;;;;3.75;1.60;;;;;;;23.45;35.55;101072.31;5054141;28;20067;-75
2022/05/12 01:58:05;;;;;;;4.03;1.88;;;;;;;23.40;35.93;101064.53;5052038;28;20056;-76
2022/05/12 02:00:34;;;;;;;3.63;1.83;;;;;;;23.37;36.06;101064.91;5056328;28;20041;-76
2022/05/12 02:03:01;;;;;;;3.25;2.00;;;;;;;23.33;35.72;101071.84;5055563;28;20464;-76
2022/05/12 02:05:34;;;;;;;4.32;1.92;;;;;;;23.35;35.89;101077.22;5056539;28;20059;-76
2022/05/12 02:08:00;;;;;;;;;;;;;;;23.03;36.00;101078.19;5057996;28;20109;-75
2022/05/12 02:10:30;;;;;;;4.32;1.75;;;;;;;23.25;36.06;101082.09;5071322;28;19920;-76
2022/05/12 02:12:57;;;;;;;4.53;1.95;;;;;;;23.26;35.49;101086.59;5060676;28;20045;-75
2022/05/12 02:15:24;;;;;;;2.90;1.77;;;;;;;23.23;35.71;101086.94;5049399;28;20052;-76
2022/05/12 02:17:51;;;;;;;3.08;1.75;;;;;;;23.21;35.64;101091.81;5054987;28;20756;-76
2022/05/12 02:20:20;;;;;;;4.00;1.80;;;;;;;23.20;36.12;101090.94;5048771;28;20049;-76
2022/05/12 02:22:48;;;;;;;4.70;2.38;;;;;;;23.16;35.86;101100.66;5053372;28;20106;-76
2022/05/12 02:25:16;;;;;;;4.63;1.95;;;;;;;23.14;35.50;101103.59;5060778;28;20078;-75
2022/05/12 02:27:45;;;;;;;4.85;2.10;;;;;;;23.11;35.20;101103.97;5060384;28;20044;-76
2022/05/12 02:30:22;;;;;;;4.30;1.83;;;;;;;23.11;35.54;101109.50;5064579;28;20097;-75
2022/05/12 02:32:48;;;;;;;3.70;1.38;;;;;;;23.06;35.30;101122.16;5048177;28;20048;-75
2022/05/12 02:35:16;;;;;;;3.88;1.83;;;;;;;23.03;35.33;101128.06;5059811;28;20082;-76
2022/05/12 02:37:43;;;;;;;3.35;1.80;;;;;;;22.98;35.55;101128.56;5045105;28;20107;-76
2022/05/12 02:40:12;;;;;;;2.80;1.55;;;;;;;22.97;35.25;101128.75;5050990;28;20482;-76
2022/05/12 02:42:39;;;;;;;3.80;1.67;;;;;;;22.92;35.09;101136.72;5065110;28;20153;-75
2022/05/12 02:45:07;;;;;;;3.40;1.70;;;;;;;22.89;35.49;101145.41;5052876;28;20049;-76
2022/05/12 02:47:34;;;;;;;4.78;1.77;;;;;;;22.85;34.96;101144.00;5061268;28;20048;-75
2022/05/12 02:50:01;;;;;;;3.00;1.48;;;;;;;22.82;35.00;101155.41;5063327;28;20040;-75
2022/05/12 02:52:27;;;;;;;2.72;1.60;;;;;;;22.77;34.95;101154.03;5051987;28;20545;-75
2022/05/12 02:54:54;;;;;;;2.85;1.52;;;;;;;22.74;35.02;101147.97;5043747;28;20078;-76
2022/05/12 02:57:21;;;;;;;3.25;1.50;;;;;;;22.71;35.05;101148.31;5039607;28;20044;-76
2022/05/12 02:59:48;;;;;;;3.97;1.65;;;;;;;22.67;34.72;101147.78;5084958;28;20079;-76
2022/05/12 03:02:14;;;;;;;3.53;1.65;;;;;;;22.65;35.20;101155.38;5051104;28;20044;-75
2022/05/12 03:04:42;;;;;;;4.47;1.83;;;;;;;22.63;35.17;101159.38;5048426;28;20060;-75
2022/05/12 03:07:08;;;;;;;3.95;1.75;;;;;;;22.59;34.69;101163.53;5051652;28;20048;-76
2022/05/12 03:09:36;;;;;;;3.80;1.55;;;;;;;22.55;35.30;101167.69;5055367;28;20048;-75
2022/05/12 03:12:03;;;;;;;2.50;1.40;;;;;;;22.52;35.27;101168.03;5041928;28;20095;-76
2022/05/12 03:14:30;;;;;;;2.65;1.30;;;;;;;22.48;34.88;101167.53;5054801;28;20052;-75
2022/05/12 03:16:57;;;;;;;3.88;1.60;;;;;;;22.44;35.18;101171.66;5047375;28;20040;-75
2022/05/12 03:19:25;;;;;;;4.30;1.40;;;;;;;22.41;35.28;101174.75;5059097;28;20052;-75
2022/05/12 03:21:52;;;;;;;3.95;1.80;;;;;;;22.37;35.07;101177.03;5048409;28;20041;-75
2022/05/12 03:24:19;;;;;;;3.28;1.65;;;;;;;22.34;35.15;101193.94;5065735;28;20382;-75
2022/05/12 03:26:47;;;;;;;4.90;1.75;;;;;;;22.31;34.92;101194.31;5064573;28;20086;-75
2022/05/12 03:29:14;;;;;;;3.75;1.45;;;;;;;22.29;35.04;101201.03;5050302;28;20049;-76
2022/05/12 03:31:41;;;;;;;3.03;1.30;;;;;;;22.24;34.80;101196.00;5046141;28;20044;-76
2022/05/12 03:34:07;;;;;;;2.60;1.38;;;;;;;22.22;35.02;101195.31;5048901;28;20421;-76
2022/05/12 03:36:35;;;;;;;3.17;1.50;;;;;;;22.19;35.21;101198.41;5057504;28;20044;-76
2022/05/12 03:39:03;;;;;;;2.20;1.27;;;;;;;22.18;35.28;101199.44;5053865;28;20737;-76
2022/05/12 03:41:30;;;;;;;3.63;1.40;;;;;;;22.14;34.95;101203.59;5052016;28;20052;-75
2022/05/12 03:46:42;;;;;;;1.95;1.20;;;;;;;22.05;34.90;101210.16;5065842;28;20450;-75
2022/05/12 03:49:09;;;;;;;3.25;1.48;;;;;;;22.02;34.70;101216.00;5043726;28;20557;-75
2022/05/12 03:51:36;;;;;;;3.22;1.40;;;;;;;22.00;34.81;101212.53;5050113;28;20075;-75
2022/05/12 03:54:03;;;;;;;2.67;1.38;;;;;;;21.98;35.09;101212.72;5050950;28;20052;-76
2022/05/12 03:56:32;;;;;;;2.88;1.45;;;;;;;21.96;34.62;101216.66;5063431;28;20117;-75
2022/05/12 03:59:03;;;;;;;5.10;1.52;;;;;;;21.92;35.31;101218.88;5053451;28;20051;-76
2022/05/12 04:01:31;;;;;;;3.22;1.42;;;;;;;21.89;35.38;101229.41;5048411;28;20045;-76
2022/05/12 04:03:58;;;;;;;3.10;1.38;;;;;;;21.86;35.16;101226.97;5042693;28;20139;-75
2022/05/12 04:06:25;;;;;;;3.00;1.30;;;;;;;21.83;34.83;101224.53;5054725;28;20052;-75
2022/05/12 04:08:52;;;;;;;2.92;1.30;;;;;;;21.80;35.25;101239.56;5048040;28;20098;-76
2022/05/12 04:11:18;;;;;;;3.58;1.48;;;;;;;21.78;34.83;101246.28;5050380;28;20048;-76
2022/05/12 04:13:45;;;;;;;3.50;1.40;;;;;;;21.76;35.30;101254.72;5051144;28;20075;-75
2022/05/12 04:16:12;;;;;;;2.83;1.40;;;;;;;21.73;35.40;101255.09;5050280;28;20549;-75
2022/05/12 04:18:39;;;;;;;4.95;1.48;;;;;;;21.72;35.14;101255.25;5063437;28;20080;-75
2022/05/12 04:21:06;;;;;;;3.63;1.60;;;;;;;21.70;35.53;101254.53;5046400;28;20052;-75
2022/05/12 04:23:33;;;;;;;3.42;1.52;;;;;;;21.69;35.16;101261.09;5051150;28;20051;-76
2022/05/12 04:26:01;;;;;;;3.72;1.50;;;;;;;21.68;35.48;101267.63;5062247;28;20103;-75
2022/05/12 04:28:27;;;;;;;3.63;1.50;;;;;;;21.66;35.15;101273.31;5058844;28;20161;-76
2022/05/12 04:30:54;;;;;;;3.72;1.80;;;;;;;21.64;35.66;101276.28;5064526;28;20051;-76
2022/05/12 04:36:06;;;;;;;4.70;1.65;;;;;;;21.61;35.37;101278.50;5066790;28;20044;-75
2022/05/12 04:38:33;;;;;;;4.07;1.90;;;;;;;21.60;35.44;101274.00;5044979;28;20459;-74
2022/05/12 04:41:03;;;;;;;3.05;1.52;;;;;;;21.61;35.51;101284.88;5054250;28;20040;-75
2022/05/12 04:43:29;;;;;;;3.28;1.60;;;;;;;21.59;35.73;101291.59;5060889;28;20047;-75
2022/05/12 04:45:56;;;;;;;3.30;1.52;;;;;;;21.58;35.90;101292.63;5057514;28;20063;-74
2022/05/12 04:48:24;;;;;;;4.28;1.65;;;;;;;21.59;35.84;101303.53;5054178;28;20044;-74
2022/05/12 04:50:52;;;;;;;5.00;1.88;;;;;;;21.59;35.56;101308.19;5054525;28;20049;-74
2022/05/12 04:53:19;;;;;;;3.35;1.60;;;;;;;21.58;35.59;101299.03;5061992;28;20551;-74
2022/05/12 04:55:47;;;;;;;3.88;1.77;;;;;;;21.59;35.69;101302.66;5053949;28;20040;-75
2022/05/12 04:58:14;;;;;;;4.82;2.22;;;;;;;21.59;36.08;101303.53;5046894;28;20552;-76
2022/05/12 05:00:43;;;;;;;6.28;2.53;;;;;;;21.59;35.70;101314.56;5070234;28;20078;-75
2022/05/12 05:03:11;;;;;;;4.20;2.50;;;;;;;21.61;36.19;101317.19;5052141;28;20052;-75
2022/05/12 05:05:46;;;;;;;3.72;2.30;;;;;;;21.61;36.25;101326.34;5043972;28;20094;-76
2022/05/12 05:08:14;;;;;;;3.72;2.17;;;;;;;21.65;35.99;101332.41;5059141;28;20060;-66
2022/05/12 05:10:41;;;;;;;4.82;2.05;;;;;;;21.69;36.48;101332.94;5052384;28;20044;-66
2022/05/12 05:13:08;;;;;;;3.90;1.92;;;;;;;21.76;36.51;101337.66;5051627;28;20101;-67
2022/05/12 05:15:35;;;;;;;3.42;2.05;;;;;;;21.82;36.65;101345.31;5060474;28;20056;-66
2022/05/12 05:18:10;;;;;;;4.07;1.95;;;;;;;21.94;36.76;101341.22;5058760;28;20127;-66
2022/05/12 05:20:36;;;;;;;4.05;1.90;;;;;;;22.03;36.51;101347.69;5061168;28;20114;-66
2022/05/12 05:23:03;;;;;;;3.83;1.80;;;;;;;22.17;36.54;101358.13;5045150;28;20037;-67
2022/05/12 05:25:31;;;;;;;3.65;1.63;;;;;;;22.33;36.17;101360.09;5057265;28;20079;-66
2022/05/12 05:27:57;;;;;;;4.47;1.90;;;;;;;22.49;36.57;101356.53;5052423;28;20117;-66
2022/05/12 05:30:25;;;;;;;4.20;1.85;;;;;;;22.69;36.26;101355.22;5050682;28;20482;-66
2022/05/12 05:32:53;;;;;;;6.28;2.10;;;;;;;22.89;36.19;101365.00;5055314;28;20048;-66
2022/05/12 05:35:21;;;;;;;3.40;1.92;;;;;;;23.09;35.39;101371.94;5055549;28;20050;-66
2022/05/12 05:37:49;;;;;;;3.95;1.80;;;;;;;23.27;35.30;101374.56;5058896;28;20516;-63
2022/05/12 05:40:19;;;;;;;5.43;2.03;;;;;;;23.47;34.94;101380.66;5054152;28;20102;-66
2022/05/12 05:42:47;;;;;;;4.75;1.52;;;;;;;23.62;34.86;101373.41;5050517;28;20394;-66
2022/05/12 05:45:17;;;;;;;4.22;1.70;;;;;;;23.78;34.91;101378.91;5050254;28;20096;-66
2022/05/12 05:47:47;;;;;;;3.28;1.50;;;;;;;23.93;34.54;101373.50;5051803;28;20143;-65
2022/05/12 05:50:24;;;;;;;2.78;1.75;;;;;;;24.09;33.96;101387.34;5050832;28;20052;-66
2022/05/12 05:55:36;;;;;;;4.78;1.90;;;;;;;24.28;33.72;101394.44;5068693;28;20502;-62
2022/05/12 05:58:05;;;;;;;3.72;1.67;;;;;;;24.43;33.12;101400.09;5045821;28;20739;-63
2022/05/12 06:00:32;;;;;;;6.95;2.10;;;;;;;24.50;33.00;101395.56;5048818;28;20049;-64
2022/05/12 06:02:59;;;;;;;3.92;1.83;;;;;;;24.57;32.83;101402.13;5047047;28;20044;-61
2022/05/12 06:05:27;;;;;;;4.30;1.55;;;;;;;24.64;32.50;101412.31;5045915;28;20128;-62
2022/05/12 06:07:54;;;;;;;3.80;1.70;;;;;;;24.71;32.73;101419.94;5041073;28;20386;-61
2022/05/12 06:10:22;;;;;;;4.53;1.65;;;;;;;24.77;31.91;101416.44;5047730;28;20452;-64
2022/05/12 06:12:49;;;;;;;3.40;1.50;;;;;;;24.81;31.75;101413.09;5051395;28;20048;-65
2022/05/12 06:15:16;;;;;;;4.68;1.73;;;;;;;24.86;31.72;101418.13;5056053;28;20047;-64
2022/05/12 06:17:43;;;;;;;3.38;1.58;;;;;;;24.88;31.72;101416.88;5044016;28;20090;-65
2022/05/12 06:20:10;;;;;;;3.10;1.70;;;;;;;24.94;31.56;101432.00;5043956;28;20586;-64
2022/05/12 06:22:38;;;;;;;4.75;1.88;;;;;;;24.96;31.77;101429.88;5051539;28;20044;-63
2022/05/12 06:25:08;;;;;;;3.40;1.52;;;;;;;25.00;31.39;101425.72;5047563;28;20501;-67
2022/05/12 06:27:35;;;;;;;5.20;2.15;;;;;;;25.02;31.19;101432.81;5077823;28;20539;-65
2022/05/12 06:30:05;;;;;;;4.03;2.00;;;;;;;25.07;31.35;101426.72;5071561;28;20059;-66
2022/05/12 06:32:33;;;;;;;4.30;2.25;;;;;;;25.08;31.50;101434.00;5051930;28;20052;-66
2022/05/12 06:34:59;;;;;;;6.47;2.40;;;;;;;25.11;31.48;101435.56;5055023;28;20067;-66
2022/05/12 06:37:26;;;;;;;5.43;2.70;;;;;;;25.15;32.05;101435.00;5050937;28;20094;-67
2022/05/12 06:39:52;;;;;;;4.82;2.03;;;;;;;25.18;31.30;101434.63;5054278;28;20044;-67
2022/05/12 06:42:20;;;;;;;4.35;2.40;;;;;;;25.22;32.15;101433.19;5051311;28;20536;-66
2022/05/12 06:44:47;;;;;;;5.35;2.35;;;;;;;25.27;31.42;101439.09;5070514;28;20040;-67
2022/05/12 06:47:15;;;;;;;5.18;2.15;;;;;;;25.34;31.52;101444.78;5058193;28;20044;-67
2022/05/12 06:49:43;;;;;;;3.97;2.00;;;;;;;25.37;31.47;101450.81;5054598;28;20106;-67
2022/05/12 06:52:10;;;;;;;5.63;2.28;;;;;;;25.44;31.34;101452.88;5052255;28;20642;-67
2022/05/12 06:54:39;;;;;;;4.28;2.10;;;;;;;25.50;31.20;101452.13;5056242;28;20049;-67
2022/05/12 06:57:06;;;;;;;5.25;2.42;;;;;;;25.54;31.15;101450.69;5038936;28;20571;-67
2022/05/12 06:59:37;;;;;;;5.93;2.30;;;;;;;25.61;30.52;101454.53;5051954;28;20080;-67
2022/05/12 07:02:04;;;;;;;6.07;2.53;;;;;;;25.65;30.75;101453.94;5049108;28;20049;-67
2022/05/12 07:04:32;;;;;;;4.07;1.90;;;;;;;25.69;30.62;101449.75;5049399;28;20074;-67
2022/05/12 07:06:59;;;;;;;6.40;2.20;;;;;;;25.75;30.26;101459.25;5049803;28;20049;-68
2022/05/12 07:09:26;;;;;;;5.03;2.28;;;;;;;25.81;30.23;101454.84;5055462;28;20094;-64
2022/05/12 07:11:53;;;;;;;4.65;2.20;;;;;;;25.85;30.19;101459.88;5046237;28;20090;-63
2022/05/12 07:14:21;;;;;;;4.18;2.20;;;;;;;25.90;30.04;101454.59;5051423;28;20040;-63
2022/05/12 07:16:48;;;;;;;5.68;2.40;;;;;;;25.93;30.18;101459.81;5052396;28;20077;-63
2022/05/12 07:19:16;;;;;;;4.38;2.30;;;;;;;25.94;29.49;101455.97;5063872;28;20459;-63
2022/05/12 07:27:18;;;;;;;4.43;1.92;;;;;;;25.86;29.28;101457.97;5057929;28;20098;-63
2022/05/12 07:29:45;;;;;;;3.78;2.20;;;;;;;25.81;29.81;101458.50;5052246;28;20060;-64
2022/05/12 07:32:13;;;;;;;4.82;2.28;;;;;;;25.79;29.67;101463.38;5048648;28;20045;-64
2022/05/12 07:34:40;;;;;;;3.72;2.13;;;;;;;25.75;29.58;101460.13;5057195;28;20044;-64
2022/05/12 07:37:07;;;;;;;3.95;2.50;;;;;;;25.72;29.76;101468.84;5042847;28;20081;-64
2022/05/12 07:39:36;;;;;;;4.97;2.10;;;;;;;25.70;29.56;101467.28;5055095;28;20048;-64
2022/05/12 07:42:04;;;;;;;3.65;2.25;;;;;;;25.66;29.52;101475.16;5050044;28;20075;-64
2022/05/12 07:44:32;;;;;;;4.10;2.10;;;;;;;25.63;29.51;101488.56;5058998;28;20040;-64
2022/05/12 07:47:01;;;;;;;3.70;2.03;;;;;;;25.59;29.45;101476.94;5038212;28;20056;-64
2022/05/12 07:49:32;;;;;;;4.15;1.85;;;;;;;25.58;29.93;101488.22;5043736;28;20052;-64
2022/05/12 07:52:00;;;;;;;5.10;2.30;;;;;;;25.55;29.50;101478.31;5052941;28;20055;-64
2022/05/12 07:54:26;;;;;;;3.97;2.28;;;;;;;25.53;29.68;101485.13;5054137;28;20121;-67
2022/05/12 07:56:53;;;;;;;3.88;2.10;;;;;;;25.53;29.31;101490.69;5030694;28;20490;-68
2022/05/12 07:59:21;;;;;;;4.53;2.42;;;;;;;25.50;29.19;101485.50;5049807;28;20053;-68
2022/05/12 08:01:48;;;;;;;5.03;2.08;;;;;;;25.48;29.41;101490.38;5052339;28;20051;-68
2022/05/12 08:04:15;;;;;;;4.00;2.10;;;;;;;25.47;29.39;101489.50;5056420;28;20059;-68
2022/05/12 08:06:43;;;;;;;5.07;2.00;;;;;;;25.45;29.40;101494.38;5047000;28;20745;-68
2022/05/12 08:09:11;;;;;;;4.00;1.88;;;;;;;25.44;29.50;101498.22;5040949;28;20076;-69
2022/05/12 08:11:39;;;;;;;3.03;1.85;;;;;;;25.45;29.53;101501.88;5050698;28;20048;-68
2022/05/12 08:14:06;;;;;;;4.28;2.15;;;;;;;25.45;29.26;101497.16;5054701;28;20102;-69
2022/05/12 08:16:34;;;;;;;4.60;2.10;;;;;;;25.49;29.29;101508.78;5062098;28;20048;-68
2022/05/12 08:19:01;;;;;;;4.43;2.35;;;;;;;25.51;29.44;101499.22;5053146;28;20045;-68
2022/05/12 08:21:28;;;;;;;4.60;2.60;;;;;;;25.57;29.76;101511.50;5051601;28;20494;-68
2022/05/12 08:23:55;;;;;;;5.78;2.72;;;;;;;25.61;29.60;101502.63;5077057;28;20049;-68
2022/05/12 08:26:22;;;;;;;4.63;2.35;;;;;;;25.70;29.42;101507.09;5051020;28;20105;-68
2022/05/12 08:28:50;;;;;;;4.50;2.70;;;;;;;25.76;28.94;101511.06;5045047;28;20052;-68
2022/05/12 08:31:20;;;;;;;4.68;2.78;;;;;;;25.83;28.93;101516.75;5051382;28;20110;-68
2022/05/12 08:33:48;;;;;;;4.10;2.50;;;;;;;25.86;29.13;101514.44;5056026;28;20052;-68
2022/05/12 08:36:15;;;;;;;4.70;2.65;;;;;;;25.91;29.38;101514.78;5086240;28;20804;-68
2022/05/12 08:38:44;;;;;;;4.20;2.67;;;;;;;25.97;29.07;101515.94;5056308;28;20048;-67
2022/05/12 08:41:18;;;;;;;5.50;2.70;;;;;;;26.06;28.55;101520.38;5055807;28;20448;-68
2022/05/12 08:43:56;;;;;;;4.95;2.85;;;;;;;26.11;28.57;101523.44;5056902;28;20056;-67
2022/05/12 08:46:40;;;;;;;4.78;2.55;;;;;;;26.13;28.43;101525.00;5053284;28;20037;-68
2022/05/12 08:49:37;;;;;;;4.28;2.42;;;;;;;26.15;29.12;101525.69;5052942;28;20044;-68
2022/05/12 08:52:31;;;;;;;5.30;3.20;;;;;;;26.29;28.50;101526.78;5046342;28;20468;-68
2022/05/12 08:55:21;;;;;;;3.95;2.58;;;;;;;26.34;28.82;101526.25;5059956;28;20710;-67
2022/05/12 08:58:00;;;;;;;5.13;2.50;;;;;;;26.37;28.57;101515.56;5057749;28;20102;-67
2022/05/12 09:00:33;;;;;;;5.57;2.88;;;;;;;26.48;27.81;101517.03;5071434;28;20052;-67
2022/05/12 09:03:07;;;;;;;5.20;2.88;;;;;;;26.54;28.23;101521.84;5081203;28;20532;-68
2022/05/12 09:05:44;;;;;;;4.43;2.47;;;;;;;26.59;27.67;101516.59;5047363;28;20090;-68
2022/05/12 09:08:19;;;;;;;4.95;2.28;;;;;;;26.59;28.06;101519.38;5053432;28;20041;-68
2022/05/12 09:10:56;;;;;;;4.20;2.58;;;;;;;26.66;27.42;101517.53;5050278;28;20061;-68
2022/05/12 09:13:25;;;;;;;3.35;2.17;;;;;;;26.69;27.55;101521.84;5049606;28;20114;-68
2022/05/12 09:16:31;;;;;;;4.47;2.00;;;;;;;26.67;27.61;101522.06;5040374;28;20447;-67
2022/05/12 09:19:00;;;;;;;3.70;2.33;;;;;;;26.68;27.58;101517.34;5049947;28;20486;-67
2022/05/12 09:21:31;;;;;;;4.65;2.33;;;;;;;26.72;27.22;101525.13;5069202;28;20078;-68
2022/05/12 09:24:00;;;;;;;3.97;2.10;;;;;;;26.70;27.31;101520.78;5058189;28;20123;-68
2022/05/12 09:26:27;;;;;;;4.65;2.33;;;;;;;26.71;27.73;101517.81;5052369;28;20072;-68
2022/05/12 09:29:11;;;;;;;3.75;2.00;;;;;;;26.75;27.01;101513.59;5052962;28;20045;-68
2022/05/12 09:31:39;;;;;;;3.10;1.95;;;;;;;26.77;27.47;101518.97;5050535;28;20060;-67
2022/05/12 09:34:32;;;;;;;4.03;2.15;;;;;;;26.79;27.19;101512.16;5056570;28;20048;-67
2022/05/12 09:37:28;;;;;;;3.45;2.05;;;;;;;26.85;27.31;101507.72;5051111;28;20177;-67
2022/05/12 09:39:57;;;;;;;3.38;2.35;;;;;;;26.91;26.97;101508.94;5055641;28;20825;-67
2022/05/12 09:42:30;;;;;;;4.00;2.28;;;;;;;26.98;26.57;101512.66;5053031;28;20048;-67
2022/05/12 09:45:05;;;;;;;5.30;2.00;;;;;;;27.00;26.98;101507.75;5065378;28;20090;-67
2022/05/12 09:47:33;;;;;;;2.63;1.65;;;;;;;27.04;26.85;101509.09;5054705;28;20051;-67
2022/05/12 09:50:21;;;;;;;3.58;1.92;;;;;;;27.12;25.68;101512.63;5055873;28;20093;-66
2022/05/12 09:52:54;;;;;;;3.63;1.90;;;;;;;27.13;25.24;101516.28;5049833;28;20552;-67
2022/05/12 09:55:21;;;;;;;4.22;1.83;;;;;;;27.11;25.95;101513.69;5051578;28;20072;-66
2022/05/12 09:57:54;;;;;;;2.33;1.45;;;;;;;27.15;25.83;101515.03;5080126;28;20559;-67
2022/05/12 10:00:40;;;;;;;3.47;1.83;;;;;;;27.11;25.41;101510.03;5051721;28;20102;-66
2022/05/12 10:09:17;;;;;;;3.15;1.60;;;;;;;27.13;25.30;101499.56;5038191;28;20500;-66
2022/05/12 10:12:02;;;;;;;2.25;1.50;;;;;;;27.12;26.05;101490.34;5049653;28;20041;-67
2022/05/12 10:14:39;;;;;;;3.60;1.60;;;;;;;27.12;25.24;101498.69;5062164;28;20402;-67
2022/05/12 10:17:36;;;;;;;3.08;1.58;;;;;;;27.10;25.04;101498.03;5043095;28;20136;-65
2022/05/12 10:20:08;;;;;;;2.30;1.30;;;;;;;27.07;24.97;101495.63;5047360;28;20048;-65
2022/05/12 10:23:10;;;;;;;3.35;1.70;;;;;;;27.01;25.21;101490.84;5047358;28;20052;-65
2022/05/12 10:25:55;;;;;;;2.23;1.40;;;;;;;27.00;25.10;101499.41;5050440;28;20060;-65
2022/05/12 10:28:48;;;;;;;3.05;1.65;;;;;;;26.90;25.85;101496.88;5058336;28;20478;-64
2022/05/12 10:31:21;;;;;;;2.83;1.60;;;;;;;26.91;25.90;101487.50;5029822;28;20666;-62
2022/05/12 10:33:57;;;;;;;3.15;1.40;;;;;;;26.89;25.78;101504.38;5051823;28;20080;-63
2022/05/12 10:36:58;;;;;;;3.13;1.58;;;;;;;26.83;25.76;101499.56;5084668;28;20460;-62
2022/05/12 10:39:35;;;;;;;3.10;1.60;;;;;;;26.83;26.16;101502.38;5052396;28;20106;-62
2022/05/12 10:42:21;;;;;;;2.67;1.50;;;;;;;26.83;25.45;101490.34;5065648;28;20055;-62
2022/05/12 10:45:09;;;;;;;3.58;1.40;;;;;;;26.82;26.10;101491.41;5051284;28;20071;-62
2022/05/12 10:47:43;;;;;;;1.77;1.00;;;;;;;26.84;25.96;101494.88;5051195;28;20123;-64
2022/05/12 10:50:12;;;;;;;1.90;1.10;;;;;;;26.88;25.34;101488.72;5053074;28;20055;-67
2022/05/12 10:53:06;;;;;;;3.78;1.58;;;;;;;26.94;24.52;101487.09;5048988;28;20119;-67
2022/05/12 10:55:59;;;;;;;2.85;1.40;;;;;;;26.97;24.68;101488.63;5055685;28;20098;-67
2022/05/12 10:58:35;;;;;;;3.08;1.30;;;;;;;27.05;24.52;101485.72;5012699;28;20036;-67
2022/05/12 11:01:15;;;;;;;2.13;1.30;;;;;;;27.11;24.69;101494.19;5051254;28;20044;-67
2022/05/12 11:04:03;;;;;;;3.13;1.52;;;;;;;27.14;24.85;101477.06;5058150;28;20508;-67
2022/05/12 11:06:55;;;;;;;2.75;1.25;;;;;;;27.18;25.11;101483.09;5052531;28;20052;-66
2022/05/12 11:09:36;;;;;;;2.55;1.20;;;;;;;27.28;24.32;101486.44;5045531;28;20053;-67
2022/05/12 11:12:14;;;;;;;3.47;1.38;;;;;;;27.38;23.93;101477.78;5051429;28;20036;-67
2022/05/12 11:14:49;;;;;;;3.20;1.63;;;;;;;27.44;23.96;101476.97;5052813;28;20094;-67
2022/05/12 11:17:30;;;;;;;2.65;1.30;;;;;;;27.48;24.09;101479.19;5054222;28;20182;-67
2022/05/12 11:20:31;;;;;;;1.75;1.30;;;;;;;27.47;24.07;101483.03;5035956;28;20102;-67
2022/05/12 11:23:35;;;;;;;3.47;1.50;;;;;;;27.54;23.82;101481.22;5048811;28;20060;-67
2022/05/12 11:26:28;;;;;;;3.58;1.20;;;;;;;27.58;23.84;101482.56;5059191;28;20567;-67
2022/05/12 11:31:55;;;;;;;3.50;1.30;;;;;;;27.69;24.09;101488.66;5064719;28;19920;-67
2022/05/12 11:34:24;;;;;;;2.92;1.48;;;;;;;27.74;24.32;101474.97;5067191;28;20052;-67
2022/05/12 11:36:54;;;;;;;2.63;1.40;;;;;;;27.79;24.22;101491.97;5051336;28;20052;-67
2022/05/12 11:39:51;;;;;;;3.35;1.40;;;;;;;27.79;24.15;101486.38;5053185;28;20653;-67
2022/05/12 11:42:24;;;;;;;3.17;1.60;;;;;;;27.85;23.80;101480.88;5050599;28;20044;-67
2022/05/12 11:44:59;;;;;;;4.15;1.50;;;;;;;27.92;23.17;101484.56;5051100;28;20501;-66
2022/05/12 11:48:03;;;;;;;2.25;1.13;;;;;;;27.93;23.12;101477.06;5048815;28;20497;-66
2022/05/12 11:50:42;;;;;;;3.55;1.50;;;;;;;27.98;23.27;101475.41;5048251;28;20064;-66
2022/05/12 11:53:21;;;;;;;2.78;1.30;;;;;;;28.03;23.65;101466.44;5049890;28;20045;-66
2022/05/12 11:56:03;;;;;;;2.22;1.27;;;;;;;28.09;23.18;101468.41;5058759;28;20057;-66
2022/05/12 11:58:35;;;;;;;2.95;1.20;;;;;;;28.15;23.17;101461.16;5049339;28;20045;-66
2022/05/12 12:01:05;;;;;;;2.92;1.33;;;;;;;28.21;23.27;101458.44;5042316;28;20053;-66
2022/05/12 12:03:32;;;;;;;2.60;1.27;;;;;;;28.26;23.09;101458.69;5044254;28;20044;-66
2022/05/12 12:06:05;;;;;;;2.75;1.27;;;;;;;28.35;22.81;101454.69;5051791;28;20058;-66